sensor_id;sensor_type;location;lat;lon;timestamp;P1;durP1;ratioP1;P2;durP2;ratioP2
803;SDS011;25687;49.976;8.240;2024-01-06T00:00:09;5.83;;;1.63;;
803;SDS011;25687;49.976;8.240;2024-01-06T00:02:35;4.37;;;1.73;;
803;SDS011;25687;49.976;8.240;2024-01-06T00:05:00;5.30;;;1.80;;
803;SDS011;25687;49.976;8.240;2024-01-06T00:07:26;3.20;;;2.00;;
803;SDS011;25687;49.976;8.240;2024-01-06T00:09:51;6.07;;;2.30;;
803;SDS011;25687;49.976;8.240;2024-01-06T00:12:17;4.13;;;2.00;;
803;SDS011;25687;49.976;8.240;2024-01-06T00:14:43;3.70;;;2.20;;
803;SDS011;25687;49.976;8.240;2024-01-06T00:17:10;5.03;;;2.10;;
803;SDS011;25687;49.976;8.240;2024-01-06T00:19:35;5.03;;;2.47;;
803;SDS011;25687;49.976;8.240;2024-01-06T00:22:01;3.27;;;2.30;;
803;SDS011;25687;49.976;8.240;2024-01-06T00:24:26;9.33;;;2.40;;
803;SDS011;25687;49.976;8.240;2024-01-06T00:26:51;4.57;;;2.10;;
803;SDS011;25687;49.976;8.240;2024-01-06T00:29:16;6.90;;;3.07;;
803;SDS011;25687;49.976;8.240;2024-01-06T00:31:42;3.13;;;1.70;;
803;SDS011;25687;49.976;8.240;2024-01-06T00:34:07;3.07;;;2.20;;
803;SDS011;25687;49.976;8.240;2024-01-06T00:36:32;3.90;;;2.17;;
803;SDS011;25687;49.976;8.240;2024-01-06T00:46:15;2.90;;;2.53;;
803;SDS011;25687;49.976;8.240;2024-01-06T00:48:41;4.80;;;2.30;;
803;SDS011;25687;49.976;8.240;2024-01-06T00:51:06;4.53;;;2.20;;
803;SDS011;25687;49.976;8.240;2024-01-06T00:53:32;8.30;;;2.40;;
803;SDS011;25687;49.976;8.240;2024-01-06T00:55:57;3.07;;;1.90;;
803;SDS011;25687;49.976;8.240;2024-01-06T00:58:22;4.70;;;2.00;;
803;SDS011;25687;49.976;8.240;2024-01-06T01:00:47;3.90;;;2.00;;
803;SDS011;25687;49.976;8.240;2024-01-06T01:03:13;3.93;;;2.27;;
803;SDS011;25687;49.976;8.240;2024-01-06T01:05:38;7.27;;;4.17;;
803;SDS011;25687;49.976;8.240;2024-01-06T01:08:03;8.27;;;2.27;;
803;SDS011;25687;49.976;8.240;2024-01-06T01:10:29;5.07;;;2.23;;
803;SDS011;25687;49.976;8.240;2024-01-06T01:12:54;3.83;;;1.70;;
803;SDS011;25687;49.976;8.240;2024-01-06T01:15:20;7.83;;;2.40;;
803;SDS011;25687;49.976;8.240;2024-01-06T01:17:45;5.20;;;2.40;;
803;SDS011;25687;49.976;8.240;2024-01-06T01:20:10;4.30;;;2.37;;
803;SDS011;25687;49.976;8.240;2024-01-06T01:22:36;5.73;;;2.70;;
803;SDS011;25687;49.976;8.240;2024-01-06T01:25:01;4.37;;;1.90;;
803;SDS011;25687;49.976;8.240;2024-01-06T01:27:30;6.30;;;2.40;;
803;SDS011;25687;49.976;8.240;2024-01-06T01:29:55;4.57;;;1.93;;
803;SDS011;25687;49.976;8.240;2024-01-06T01:32:21;5.27;;;1.97;;
803;SDS011;25687;49.976;8.240;2024-01-06T01:34:46;4.00;;;2.20;;
803;SDS011;25687;49.976;8.240;2024-01-06T01:37:11;6.93;;;2.07;;
803;SDS011;25687;49.976;8.240;2024-01-06T01:39:36;2.60;;;1.90;;
803;SDS011;25687;49.976;8.240;2024-01-06T01:42:02;4.63;;;2.23;;
803;SDS011;25687;49.976;8.240;2024-01-06T01:44:28;3.23;;;2.23;;
803;SDS011;25687;49.976;8.240;2024-01-06T01:46:53;6.93;;;2.37;;
803;SDS011;25687;49.976;8.240;2024-01-06T01:49:19;3.90;;;2.00;;
803;SDS011;25687;49.976;8.240;2024-01-06T01:51:45;4.63;;;1.80;;
803;SDS011;25687;49.976;8.240;2024-01-06T01:54:11;6.73;;;1.87;;
803;SDS011;25687;49.976;8.240;2024-01-06T01:56:36;5.87;;;2.23;;
803;SDS011;25687;49.976;8.240;2024-01-06T01:59:05;8.07;;;2.10;;
803;SDS011;25687;49.976;8.240;2024-01-06T02:01:34;5.30;;;2.23;;
803;SDS011;25687;49.976;8.240;2024-01-06T02:03:59;5.40;;;2.20;;
803;SDS011;25687;49.976;8.240;2024-01-06T02:06:24;3.27;;;2.20;;
803;SDS011;25687;49.976;8.240;2024-01-06T02:08:50;3.70;;;2.13;;
803;SDS011;25687;49.976;8.240;2024-01-06T02:11:15;4.53;;;2.40;;
803;SDS011;25687;49.976;8.240;2024-01-06T02:13:40;7.47;;;1.90;;
803;SDS011;25687;49.976;8.240;2024-01-06T02:16:06;5.50;;;2.33;;
803;SDS011;25687;49.976;8.240;2024-01-06T02:18:31;5.23;;;2.23;;
803;SDS011;25687;49.976;8.240;2024-01-06T02:20:58;4.07;;;2.13;;
803;SDS011;25687;49.976;8.240;2024-01-06T02:23:25;5.23;;;2.17;;
803;SDS011;25687;49.976;8.240;2024-01-06T02:25:50;3.63;;;2.07;;
803;SDS011;25687;49.976;8.240;2024-01-06T02:28:16;3.37;;;2.07;;
803;SDS011;25687;49.976;8.240;2024-01-06T02:30:41;6.33;;;2.40;;
803;SDS011;25687;49.976;8.240;2024-01-06T02:33:06;2.23;;;1.87;;
803;SDS011;25687;49.976;8.240;2024-01-06T02:35:32;7.47;;;2.00;;
803;SDS011;25687;49.976;8.240;2024-01-06T02:37:57;3.90;;;2.03;;
803;SDS011;25687;49.976;8.240;2024-01-06T02:40:22;5.13;;;2.83;;
803;SDS011;25687;49.976;8.240;2024-01-06T02:42:47;6.90;;;3.67;;
803;SDS011;25687;49.976;8.240;2024-01-06T02:45:13;5.27;;;3.80;;
803;SDS011;25687;49.976;8.240;2024-01-06T02:47:38;6.57;;;3.87;;
803;SDS011;25687;49.976;8.240;2024-01-06T02:50:04;7.93;;;4.13;;
803;SDS011;25687;49.976;8.240;2024-01-06T02:52:30;6.93;;;3.80;;
803;SDS011;25687;49.976;8.240;2024-01-06T02:54:55;6.90;;;3.90;;
803;SDS011;25687;49.976;8.240;2024-01-06T02:57:20;9.33;;;4.07;;
803;SDS011;25687;49.976;8.240;2024-01-06T02:59:46;5.07;;;3.30;;
803;SDS011;25687;49.976;8.240;2024-01-06T03:02:11;6.80;;;3.87;;
803;SDS011;25687;49.976;8.240;2024-01-06T03:04:36;6.50;;;3.20;;
803;SDS011;25687;49.976;8.240;2024-01-06T03:07:02;7.33;;;3.27;;
803;SDS011;25687;49.976;8.240;2024-01-06T03:09:27;3.57;;;2.77;;
803;SDS011;25687;49.976;8.240;2024-01-06T03:11:52;6.43;;;3.13;;
803;SDS011;25687;49.976;8.240;2024-01-06T03:14:17;7.70;;;2.67;;
803;SDS011;25687;49.976;8.240;2024-01-06T03:16:43;5.50;;;2.83;;
803;SDS011;25687;49.976;8.240;2024-01-06T03:19:08;7.13;;;2.73;;
803;SDS011;25687;49.976;8.240;2024-01-06T03:21:33;7.10;;;3.00;;
803;SDS011;25687;49.976;8.240;2024-01-06T03:23:59;4.30;;;2.87;;
803;SDS011;25687;49.976;8.240;2024-01-06T03:26:24;5.20;;;2.63;;
803;SDS011;25687;49.976;8.240;2024-01-06T03:28:50;5.73;;;2.70;;
803;SDS011;25687;49.976;8.240;2024-01-06T03:31:15;4.90;;;2.80;;
803;SDS011;25687;49.976;8.240;2024-01-06T03:33:41;6.50;;;3.00;;
803;SDS011;25687;49.976;8.240;2024-01-06T03:36:07;6.57;;;2.87;;
803;SDS011;25687;49.976;8.240;2024-01-06T03:38:33;4.73;;;2.57;;
803;SDS011;25687;49.976;8.240;2024-01-06T03:40:58;4.47;;;2.80;;
803;SDS011;25687;49.976;8.240;2024-01-06T03:43:24;11.23;;;3.60;;
803;SDS011;25687;49.976;8.240;2024-01-06T03:45:49;7.37;;;3.57;;
803;SDS011;25687;49.976;8.240;2024-01-06T03:48:14;5.73;;;3.03;;
803;SDS011;25687;49.976;8.240;2024-01-06T03:50:40;6.33;;;3.40;;
803;SDS011;25687;49.976;8.240;2024-01-06T03:53:05;5.97;;;2.70;;
803;SDS011;25687;49.976;8.240;2024-01-06T03:55:30;5.20;;;2.70;;
803;SDS011;25687;49.976;8.240;2024-01-06T03:57:55;8.23;;;3.20;;
803;SDS011;25687;49.976;8.240;2024-01-06T04:00:21;6.63;;;2.60;;
803;SDS011;25687;49.976;8.240;2024-01-06T04:02:46;6.50;;;2.70;;
803;SDS011;25687;49.976;8.240;2024-01-06T04:05:11;6.53;;;2.63;;
803;SDS011;25687;49.976;8.240;2024-01-06T04:07:36;4.10;;;2.80;;
803;SDS011;25687;49.976;8.240;2024-01-06T04:10:02;6.70;;;2.97;;
803;SDS011;25687;49.976;8.240;2024-01-06T04:12:27;4.17;;;2.90;;
803;SDS011;25687;49.976;8.240;2024-01-06T04:14:53;3.73;;;2.17;;
803;SDS011;25687;49.976;8.240;2024-01-06T04:17:18;5.13;;;2.63;;
803;SDS011;25687;49.976;8.240;2024-01-06T04:19:43;4.73;;;2.70;;
803;SDS011;25687;49.976;8.240;2024-01-06T04:22:08;7.73;;;2.70;;
803;SDS011;25687;49.976;8.240;2024-01-06T04:24:34;5.60;;;2.50;;
803;SDS011;25687;49.976;8.240;2024-01-06T04:27:02;5.07;;;2.67;;
803;SDS011;25687;49.976;8.240;2024-01-06T04:29:29;4.17;;;2.83;;
803;SDS011;25687;49.976;8.240;2024-01-06T04:31:54;4.30;;;2.70;;
803;SDS011;25687;49.976;8.240;2024-01-06T04:34:19;7.07;;;3.10;;
803;SDS011;25687;49.976;8.240;2024-01-06T04:36:44;5.73;;;2.93;;
803;SDS011;25687;49.976;8.240;2024-01-06T04:39:10;4.83;;;2.27;;
803;SDS011;25687;49.976;8.240;2024-01-06T04:41:36;4.80;;;2.93;;
803;SDS011;25687;49.976;8.240;2024-01-06T04:44:01;6.30;;;2.50;;
803;SDS011;25687;49.976;8.240;2024-01-06T04:46:26;5.63;;;2.80;;
803;SDS011;25687;49.976;8.240;2024-01-06T04:48:51;8.27;;;2.70;;
803;SDS011;25687;49.976;8.240;2024-01-06T04:51:17;2.77;;;2.00;;
803;SDS011;25687;49.976;8.240;2024-01-06T04:53:42;5.73;;;2.57;;
803;SDS011;25687;49.976;8.240;2024-01-06T04:56:07;4.37;;;2.53;;
803;SDS011;25687;49.976;8.240;2024-01-06T04:58:32;8.17;;;2.40;;
803;SDS011;25687;49.976;8.240;2024-01-06T05:00:59;4.60;;;2.43;;
803;SDS011;25687;49.976;8.240;2024-01-06T05:03:25;5.10;;;2.83;;
803;SDS011;25687;49.976;8.240;2024-01-06T05:05:50;7.27;;;2.43;;
803;SDS011;25687;49.976;8.240;2024-01-06T05:08:15;7.20;;;2.40;;
803;SDS011;25687;49.976;8.240;2024-01-06T05:10:42;4.73;;;2.37;;
803;SDS011;25687;49.976;8.240;2024-01-06T05:13:07;4.07;;;2.30;;
803;SDS011;25687;49.976;8.240;2024-01-06T05:15:32;3.87;;;2.07;;
803;SDS011;25687;49.976;8.240;2024-01-06T05:17:58;6.73;;;2.07;;
803;SDS011;25687;49.976;8.240;2024-01-06T05:20:23;3.30;;;2.00;;
803;SDS011;25687;49.976;8.240;2024-01-06T05:22:48;2.87;;;2.33;;
803;SDS011;25687;49.976;8.240;2024-01-06T05:25:13;5.83;;;2.63;;
803;SDS011;25687;49.976;8.240;2024-01-06T05:27:39;4.00;;;2.07;;
803;SDS011;25687;49.976;8.240;2024-01-06T05:30:04;3.10;;;2.10;;
803;SDS011;25687;49.976;8.240;2024-01-06T05:32:31;6.03;;;2.20;;
803;SDS011;25687;49.976;8.240;2024-01-06T05:34:56;2.37;;;2.07;;
803;SDS011;25687;49.976;8.240;2024-01-06T05:37:21;4.73;;;2.03;;
803;SDS011;25687;49.976;8.240;2024-01-06T05:39:47;4.23;;;2.47;;
803;SDS011;25687;49.976;8.240;2024-01-06T05:42:12;4.60;;;2.23;;
803;SDS011;25687;49.976;8.240;2024-01-06T05:44:38;4.10;;;2.20;;
803;SDS011;25687;49.976;8.240;2024-01-06T05:47:03;4.60;;;2.07;;
803;SDS011;25687;49.976;8.240;2024-01-06T05:49:29;5.50;;;2.03;;
803;SDS011;25687;49.976;8.240;2024-01-06T05:51:54;2.67;;;2.13;;
803;SDS011;25687;49.976;8.240;2024-01-06T05:54:19;2.30;;;2.00;;
803;SDS011;25687;49.976;8.240;2024-01-06T05:56:44;5.80;;;2.40;;
803;SDS011;25687;49.976;8.240;2024-01-06T05:59:10;2.10;;;1.83;;
803;SDS011;25687;49.976;8.240;2024-01-06T06:01:35;4.30;;;2.30;;
803;SDS011;25687;49.976;8.240;2024-01-06T06:04:00;5.53;;;2.10;;
803;SDS011;25687;49.976;8.240;2024-01-06T06:06:25;4.43;;;2.90;;
803;SDS011;25687;49.976;8.240;2024-01-06T06:08:51;3.00;;;1.93;;
803;SDS011;25687;49.976;8.240;2024-01-06T06:11:16;3.27;;;2.17;;
803;SDS011;25687;49.976;8.240;2024-01-06T06:13:41;2.90;;;1.60;;
803;SDS011;25687;49.976;8.240;2024-01-06T06:16:08;2.67;;;2.03;;
803;SDS011;25687;49.976;8.240;2024-01-06T06:18:34;4.03;;;2.20;;
803;SDS011;25687;49.976;8.240;2024-01-06T06:21:00;6.10;;;2.37;;
803;SDS011;25687;49.976;8.240;2024-01-06T06:23:35;4.20;;;2.30;;
803;SDS011;25687;49.976;8.240;2024-01-06T06:26:04;5.60;;;2.00;;
803;SDS011;25687;49.976;8.240;2024-01-06T06:28:33;7.03;;;2.13;;
803;SDS011;25687;49.976;8.240;2024-01-06T06:30:59;3.90;;;1.83;;
803;SDS011;25687;49.976;8.240;2024-01-06T06:33:24;5.37;;;2.27;;
803;SDS011;25687;49.976;8.240;2024-01-06T06:35:49;6.73;;;2.67;;
803;SDS011;25687;49.976;8.240;2024-01-06T06:38:15;5.20;;;2.50;;
803;SDS011;25687;49.976;8.240;2024-01-06T06:40:40;3.93;;;2.20;;
803;SDS011;25687;49.976;8.240;2024-01-06T06:43:05;4.30;;;2.20;;
803;SDS011;25687;49.976;8.240;2024-01-06T06:45:30;7.63;;;2.57;;
803;SDS011;25687;49.976;8.240;2024-01-06T06:47:56;3.53;;;2.23;;
803;SDS011;25687;49.976;8.240;2024-01-06T06:50:21;3.83;;;2.67;;
803;SDS011;25687;49.976;8.240;2024-01-06T06:52:46;4.50;;;2.90;;
803;SDS011;25687;49.976;8.240;2024-01-06T06:55:12;5.73;;;2.57;;
803;SDS011;25687;49.976;8.240;2024-01-06T06:57:37;4.03;;;2.80;;
803;SDS011;25687;49.976;8.240;2024-01-06T07:00:03;3.93;;;2.70;;
803;SDS011;25687;49.976;8.240;2024-01-06T07:02:29;6.07;;;2.73;;
803;SDS011;25687;49.976;8.240;2024-01-06T07:04:54;3.70;;;1.90;;
803;SDS011;25687;49.976;8.240;2024-01-06T07:07:20;6.70;;;2.50;;
803;SDS011;25687;49.976;8.240;2024-01-06T07:09:45;5.90;;;2.80;;
803;SDS011;25687;49.976;8.240;2024-01-06T07:12:10;3.27;;;2.57;;
803;SDS011;25687;49.976;8.240;2024-01-06T07:14:35;4.40;;;2.47;;
803;SDS011;25687;49.976;8.240;2024-01-06T07:17:02;4.57;;;2.70;;
803;SDS011;25687;49.976;8.240;2024-01-06T07:19:27;3.97;;;2.70;;
803;SDS011;25687;49.976;8.240;2024-01-06T07:21:53;4.83;;;2.70;;
803;SDS011;25687;49.976;8.240;2024-01-06T07:24:18;4.67;;;2.10;;
803;SDS011;25687;49.976;8.240;2024-01-06T07:26:43;4.37;;;2.60;;
803;SDS011;25687;49.976;8.240;2024-01-06T07:29:08;4.93;;;2.03;;
803;SDS011;25687;49.976;8.240;2024-01-06T07:31:34;3.30;;;2.20;;
803;SDS011;25687;49.976;8.240;2024-01-06T07:33:59;3.20;;;2.17;;
803;SDS011;25687;49.976;8.240;2024-01-06T07:36:25;7.70;;;2.77;;
803;SDS011;25687;49.976;8.240;2024-01-06T07:38:50;2.90;;;2.50;;
803;SDS011;25687;49.976;8.240;2024-01-06T07:41:16;3.33;;;2.30;;
803;SDS011;25687;49.976;8.240;2024-01-06T07:43:42;5.17;;;2.70;;
803;SDS011;25687;49.976;8.240;2024-01-06T07:46:07;3.87;;;2.70;;
803;SDS011;25687;49.976;8.240;2024-01-06T07:48:34;2.93;;;2.60;;
803;SDS011;25687;49.976;8.240;2024-01-06T07:51:00;5.60;;;2.60;;
803;SDS011;25687;49.976;8.240;2024-01-06T07:53:26;5.43;;;2.80;;
803;SDS011;25687;49.976;8.240;2024-01-06T07:55:51;4.70;;;2.90;;
803;SDS011;25687;49.976;8.240;2024-01-06T07:58:16;4.53;;;2.27;;
803;SDS011;25687;49.976;8.240;2024-01-06T08:00:42;4.20;;;2.73;;
803;SDS011;25687;49.976;8.240;2024-01-06T08:03:07;5.33;;;2.70;;
803;SDS011;25687;49.976;8.240;2024-01-06T08:05:32;3.07;;;2.40;;
803;SDS011;25687;49.976;8.240;2024-01-06T08:07:58;4.13;;;2.23;;
803;SDS011;25687;49.976;8.240;2024-01-06T08:10:23;4.53;;;2.80;;
803;SDS011;25687;49.976;8.240;2024-01-06T08:12:48;4.97;;;2.70;;
803;SDS011;25687;49.976;8.240;2024-01-06T08:15:13;4.37;;;2.93;;
803;SDS011;25687;49.976;8.240;2024-01-06T08:17:39;6.30;;;2.70;;
803;SDS011;25687;49.976;8.240;2024-01-06T08:20:06;4.10;;;3.30;;
803;SDS011;25687;49.976;8.240;2024-01-06T08:22:32;8.13;;;3.30;;
803;SDS011;25687;49.976;8.240;2024-01-06T08:24:57;3.67;;;2.40;;
803;SDS011;25687;49.976;8.240;2024-01-06T08:27:22;4.93;;;2.97;;
803;SDS011;25687;49.976;8.240;2024-01-06T08:29:48;4.97;;;2.43;;
803;SDS011;25687;49.976;8.240;2024-01-06T08:32:14;6.23;;;3.47;;
803;SDS011;25687;49.976;8.240;2024-01-06T08:34:40;2.80;;;2.50;;
803;SDS011;25687;49.976;8.240;2024-01-06T08:37:05;4.30;;;3.00;;
803;SDS011;25687;49.976;8.240;2024-01-06T08:39:30;6.20;;;2.80;;
803;SDS011;25687;49.976;8.240;2024-01-06T08:41:56;6.30;;;3.00;;
803;SDS011;25687;49.976;8.240;2024-01-06T08:44:21;4.57;;;2.97;;
803;SDS011;25687;49.976;8.240;2024-01-06T08:46:46;5.37;;;3.57;;
803;SDS011;25687;49.976;8.240;2024-01-06T08:49:11;4.37;;;3.17;;
803;SDS011;25687;49.976;8.240;2024-01-06T08:51:37;5.20;;;3.30;;
803;SDS011;25687;49.976;8.240;2024-01-06T08:54:02;5.30;;;2.77;;
803;SDS011;25687;49.976;8.240;2024-01-06T08:56:30;5.20;;;3.50;;
803;SDS011;25687;49.976;8.240;2024-01-06T08:58:55;6.93;;;3.33;;
803;SDS011;25687;49.976;8.240;2024-01-06T09:01:22;3.20;;;2.90;;
803;SDS011;25687;49.976;8.240;2024-01-06T09:03:47;6.83;;;3.07;;
803;SDS011;25687;49.976;8.240;2024-01-06T09:06:12;3.27;;;2.60;;
803;SDS011;25687;49.976;8.240;2024-01-06T09:08:38;5.27;;;2.77;;
803;SDS011;25687;49.976;8.240;2024-01-06T09:11:03;5.57;;;2.60;;
803;SDS011;25687;49.976;8.240;2024-01-06T09:13:29;3.33;;;2.90;;
803;SDS011;25687;49.976;8.240;2024-01-06T09:15:54;5.27;;;2.50;;
803;SDS011;25687;49.976;8.240;2024-01-06T09:18:19;3.87;;;2.73;;
803;SDS011;25687;49.976;8.240;2024-01-06T09:20:45;4.13;;;2.43;;
803;SDS011;25687;49.976;8.240;2024-01-06T09:23:12;5.00;;;2.53;;
803;SDS011;25687;49.976;8.240;2024-01-06T09:25:38;5.37;;;3.20;;
803;SDS011;25687;49.976;8.240;2024-01-06T09:28:04;5.90;;;3.50;;
803;SDS011;25687;49.976;8.240;2024-01-06T09:30:30;5.30;;;3.07;;
803;SDS011;25687;49.976;8.240;2024-01-06T09:32:55;5.83;;;2.57;;
803;SDS011;25687;49.976;8.240;2024-01-06T09:35:21;5.00;;;3.20;;
803;SDS011;25687;49.976;8.240;2024-01-06T09:37:46;3.17;;;2.60;;
803;SDS011;25687;49.976;8.240;2024-01-06T09:40:12;5.37;;;2.97;;
803;SDS011;25687;49.976;8.240;2024-01-06T09:42:40;5.57;;;2.47;;
803;SDS011;25687;49.976;8.240;2024-01-06T09:45:06;3.17;;;2.60;;
803;SDS011;25687;49.976;8.240;2024-01-06T09:47:33;6.03;;;3.10;;
803;SDS011;25687;49.976;8.240;2024-01-06T09:50:00;5.70;;;2.73;;
803;SDS011;25687;49.976;8.240;2024-01-06T09:52:28;3.13;;;2.67;;
803;SDS011;25687;49.976;8.240;2024-01-06T09:54:57;4.83;;;2.70;;
803;SDS011;25687;49.976;8.240;2024-01-06T09:57:25;5.00;;;2.53;;
803;SDS011;25687;49.976;8.240;2024-01-06T09:59:51;6.13;;;2.70;;
803;SDS011;25687;49.976;8.240;2024-01-06T10:02:16;4.30;;;2.80;;
803;SDS011;25687;49.976;8.240;2024-01-06T10:04:43;6.00;;;3.27;;
803;SDS011;25687;49.976;8.240;2024-01-06T10:07:09;4.43;;;2.80;;
803;SDS011;25687;49.976;8.240;2024-01-06T10:09:38;3.20;;;2.80;;
803;SDS011;25687;49.976;8.240;2024-01-06T10:12:03;3.97;;;3.40;;
803;SDS011;25687;49.976;8.240;2024-01-06T10:14:29;5.07;;;3.10;;
803;SDS011;25687;49.976;8.240;2024-01-06T10:16:55;3.93;;;3.17;;
803;SDS011;25687;49.976;8.240;2024-01-06T10:19:20;4.03;;;3.07;;
803;SDS011;25687;49.976;8.240;2024-01-06T10:21:46;4.07;;;3.00;;
803;SDS011;25687;49.976;8.240;2024-01-06T10:24:11;3.43;;;2.97;;
803;SDS011;25687;49.976;8.240;2024-01-06T10:26:36;4.37;;;2.87;;
803;SDS011;25687;49.976;8.240;2024-01-06T10:29:03;5.03;;;2.93;;
803;SDS011;25687;49.976;8.240;2024-01-06T10:31:31;2.80;;;2.60;;
803;SDS011;25687;49.976;8.240;2024-01-06T10:33:57;4.03;;;2.90;;
803;SDS011;25687;49.976;8.240;2024-01-06T10:36:23;3.80;;;3.13;;
803;SDS011;25687;49.976;8.240;2024-01-06T10:38:49;4.00;;;3.07;;
803;SDS011;25687;49.976;8.240;2024-01-06T10:41:15;5.20;;;3.33;;
803;SDS011;25687;49.976;8.240;2024-01-06T10:43:41;5.40;;;3.73;;
803;SDS011;25687;49.976;8.240;2024-01-06T10:46:08;3.57;;;3.03;;
803;SDS011;25687;49.976;8.240;2024-01-06T10:48:37;4.37;;;3.03;;
803;SDS011;25687;49.976;8.240;2024-01-06T10:51:07;4.13;;;2.77;;
803;SDS011;25687;49.976;8.240;2024-01-06T10:53:33;4.43;;;3.23;;
803;SDS011;25687;49.976;8.240;2024-01-06T10:56:04;6.33;;;3.07;;
803;SDS011;25687;49.976;8.240;2024-01-06T10:58:30;3.93;;;2.90;;
803;SDS011;25687;49.976;8.240;2024-01-06T11:00:58;4.10;;;3.17;;
803;SDS011;25687;49.976;8.240;2024-01-06T11:03:24;4.60;;;3.30;;
803;SDS011;25687;49.976;8.240;2024-01-06T11:05:49;5.47;;;3.50;;
803;SDS011;25687;49.976;8.240;2024-01-06T11:08:16;4.87;;;3.10;;
803;SDS011;25687;49.976;8.240;2024-01-06T11:10:42;5.90;;;3.73;;
803;SDS011;25687;49.976;8.240;2024-01-06T11:13:09;4.73;;;2.93;;
803;SDS011;25687;49.976;8.240;2024-01-06T11:15:43;5.43;;;3.60;;
803;SDS011;25687;49.976;8.240;2024-01-06T11:18:30;3.70;;;3.10;;
803;SDS011;25687;49.976;8.240;2024-01-06T11:26:32;5.03;;;3.53;;
803;SDS011;25687;49.976;8.240;2024-01-06T11:28:57;7.20;;;3.33;;
803;SDS011;25687;49.976;8.240;2024-01-06T11:31:31;3.93;;;3.50;;
803;SDS011;25687;49.976;8.240;2024-01-06T11:33:56;7.03;;;3.73;;
803;SDS011;25687;49.976;8.240;2024-01-06T11:36:40;5.57;;;3.60;;
803;SDS011;25687;49.976;8.240;2024-01-06T11:39:05;4.57;;;3.03;;
803;SDS011;25687;49.976;8.240;2024-01-06T11:41:49;3.70;;;3.10;;
803;SDS011;25687;49.976;8.240;2024-01-06T11:44:22;6.80;;;3.40;;
803;SDS011;25687;49.976;8.240;2024-01-06T11:46:47;3.93;;;3.20;;
803;SDS011;25687;49.976;8.240;2024-01-06T11:49:16;5.17;;;3.20;;
803;SDS011;25687;49.976;8.240;2024-01-06T11:51:45;4.17;;;3.13;;
803;SDS011;25687;49.976;8.240;2024-01-06T11:54:11;5.13;;;3.23;;
803;SDS011;25687;49.976;8.240;2024-01-06T11:56:37;5.13;;;3.57;;
803;SDS011;25687;49.976;8.240;2024-01-06T11:59:03;5.13;;;3.20;;
803;SDS011;25687;49.976;8.240;2024-01-06T12:01:35;4.57;;;3.57;;
803;SDS011;25687;49.976;8.240;2024-01-06T12:04:01;4.53;;;3.60;;
803;SDS011;25687;49.976;8.240;2024-01-06T12:06:28;3.67;;;3.37;;
803;SDS011;25687;49.976;8.240;2024-01-06T12:09:02;4.20;;;3.80;;
803;SDS011;25687;49.976;8.240;2024-01-06T12:11:29;4.77;;;3.47;;
803;SDS011;25687;49.976;8.240;2024-01-06T12:13:55;4.80;;;3.50;;
803;SDS011;25687;49.976;8.240;2024-01-06T12:16:20;6.03;;;3.97;;
803;SDS011;25687;49.976;8.240;2024-01-06T12:18:46;5.97;;;3.70;;
803;SDS011;25687;49.976;8.240;2024-01-06T12:21:11;7.00;;;4.37;;
803;SDS011;25687;49.976;8.240;2024-01-06T12:23:37;4.60;;;4.20;;
803;SDS011;25687;49.976;8.240;2024-01-06T12:26:02;5.07;;;3.80;;
803;SDS011;25687;49.976;8.240;2024-01-06T12:28:27;4.10;;;3.77;;
803;SDS011;25687;49.976;8.240;2024-01-06T12:30:53;4.70;;;4.30;;
803;SDS011;25687;49.976;8.240;2024-01-06T12:33:19;4.20;;;3.80;;
803;SDS011;25687;49.976;8.240;2024-01-06T12:35:45;5.00;;;4.07;;
803;SDS011;25687;49.976;8.240;2024-01-06T12:38:10;5.63;;;4.13;;
803;SDS011;25687;49.976;8.240;2024-01-06T12:40:36;6.30;;;3.57;;
803;SDS011;25687;49.976;8.240;2024-01-06T12:43:02;4.40;;;4.00;;
803;SDS011;25687;49.976;8.240;2024-01-06T12:45:29;4.53;;;3.80;;
803;SDS011;25687;49.976;8.240;2024-01-06T12:47:54;5.00;;;3.37;;
803;SDS011;25687;49.976;8.240;2024-01-06T12:50:19;4.10;;;3.43;;
803;SDS011;25687;49.976;8.240;2024-01-06T12:52:45;4.60;;;3.73;;
803;SDS011;25687;49.976;8.240;2024-01-06T12:55:11;6.37;;;4.63;;
803;SDS011;25687;49.976;8.240;2024-01-06T12:57:36;3.33;;;3.00;;
803;SDS011;25687;49.976;8.240;2024-01-06T13:00:02;3.90;;;3.60;;
803;SDS011;25687;49.976;8.240;2024-01-06T13:02:28;4.97;;;3.43;;
803;SDS011;25687;49.976;8.240;2024-01-06T13:04:54;4.67;;;3.30;;
803;SDS011;25687;49.976;8.240;2024-01-06T13:07:20;5.23;;;3.30;;
803;SDS011;25687;49.976;8.240;2024-01-06T13:09:47;3.57;;;3.03;;
803;SDS011;25687;49.976;8.240;2024-01-06T13:12:12;3.90;;;3.50;;
803;SDS011;25687;49.976;8.240;2024-01-06T13:14:37;3.33;;;3.03;;
803;SDS011;25687;49.976;8.240;2024-01-06T13:17:03;3.83;;;3.27;;
803;SDS011;25687;49.976;8.240;2024-01-06T13:19:28;4.13;;;2.90;;
803;SDS011;25687;49.976;8.240;2024-01-06T13:21:54;3.47;;;2.90;;
803;SDS011;25687;49.976;8.240;2024-01-06T13:24:19;2.70;;;2.50;;
803;SDS011;25687;49.976;8.240;2024-01-06T13:26:44;3.27;;;2.97;;
803;SDS011;25687;49.976;8.240;2024-01-06T13:29:10;3.40;;;2.70;;
803;SDS011;25687;49.976;8.240;2024-01-06T13:31:35;5.10;;;3.17;;
803;SDS011;25687;49.976;8.240;2024-01-06T13:34:02;3.40;;;3.10;;
803;SDS011;25687;49.976;8.240;2024-01-06T13:36:27;4.93;;;3.80;;
803;SDS011;25687;49.976;8.240;2024-01-06T13:38:52;4.40;;;4.00;;
803;SDS011;25687;49.976;8.240;2024-01-06T13:41:18;5.30;;;4.30;;
803;SDS011;25687;49.976;8.240;2024-01-06T13:43:43;5.47;;;4.50;;
803;SDS011;25687;49.976;8.240;2024-01-06T13:46:09;5.77;;;5.00;;
803;SDS011;25687;49.976;8.240;2024-01-06T13:48:35;7.33;;;5.50;;
803;SDS011;25687;49.976;8.240;2024-01-06T13:51:00;5.60;;;4.73;;
803;SDS011;25687;49.976;8.240;2024-01-06T13:53:26;5.70;;;4.83;;
803;SDS011;25687;49.976;8.240;2024-01-06T13:55:51;5.90;;;5.03;;
803;SDS011;25687;49.976;8.240;2024-01-06T13:58:16;5.43;;;4.57;;
803;SDS011;25687;49.976;8.240;2024-01-06T14:00:42;5.90;;;4.60;;
803;SDS011;25687;49.976;8.240;2024-01-06T14:03:09;6.20;;;5.50;;
803;SDS011;25687;49.976;8.240;2024-01-06T14:05:34;5.60;;;4.87;;
803;SDS011;25687;49.976;8.240;2024-01-06T14:08:00;6.13;;;4.87;;
803;SDS011;25687;49.976;8.240;2024-01-06T14:10:25;6.83;;;5.33;;
803;SDS011;25687;49.976;8.240;2024-01-06T14:12:51;6.30;;;4.97;;
803;SDS011;25687;49.976;8.240;2024-01-06T14:15:18;5.23;;;4.73;;
803;SDS011;25687;49.976;8.240;2024-01-06T14:17:43;4.93;;;4.47;;
803;SDS011;25687;49.976;8.240;2024-01-06T14:20:14;6.97;;;5.07;;
803;SDS011;25687;49.976;8.240;2024-01-06T14:22:42;6.97;;;5.10;;
803;SDS011;25687;49.976;8.240;2024-01-06T14:25:08;5.83;;;4.87;;
803;SDS011;25687;49.976;8.240;2024-01-06T14:27:33;17.00;;;10.50;;
803;SDS011;25687;49.976;8.240;2024-01-06T14:29:59;8.23;;;6.53;;
803;SDS011;25687;49.976;8.240;2024-01-06T14:32:24;7.03;;;5.20;;
803;SDS011;25687;49.976;8.240;2024-01-06T14:34:50;6.40;;;5.20;;
803;SDS011;25687;49.976;8.240;2024-01-06T14:37:18;6.53;;;5.43;;
803;SDS011;25687;49.976;8.240;2024-01-06T14:39:43;6.23;;;5.13;;
803;SDS011;25687;49.976;8.240;2024-01-06T14:42:08;7.03;;;6.07;;
803;SDS011;25687;49.976;8.240;2024-01-06T14:44:34;7.23;;;5.87;;
803;SDS011;25687;49.976;8.240;2024-01-06T14:46:59;7.17;;;6.10;;
803;SDS011;25687;49.976;8.240;2024-01-06T14:49:25;6.90;;;5.87;;
803;SDS011;25687;49.976;8.240;2024-01-06T14:51:50;8.20;;;6.63;;
803;SDS011;25687;49.976;8.240;2024-01-06T14:54:15;8.73;;;6.23;;
803;SDS011;25687;49.976;8.240;2024-01-06T14:56:41;8.17;;;6.50;;
803;SDS011;25687;49.976;8.240;2024-01-06T14:59:07;9.27;;;6.20;;
803;SDS011;25687;49.976;8.240;2024-01-06T15:01:32;9.03;;;6.37;;
803;SDS011;25687;49.976;8.240;2024-01-06T15:03:58;10.73;;;7.80;;
803;SDS011;25687;49.976;8.240;2024-01-06T15:06:23;10.07;;;8.13;;
803;SDS011;25687;49.976;8.240;2024-01-06T15:08:48;8.23;;;7.27;;
803;SDS011;25687;49.976;8.240;2024-01-06T15:11:13;8.23;;;6.97;;
803;SDS011;25687;49.976;8.240;2024-01-06T15:13:39;8.97;;;7.10;;
803;SDS011;25687;49.976;8.240;2024-01-06T15:16:04;10.10;;;7.37;;
803;SDS011;25687;49.976;8.240;2024-01-06T15:18:31;8.70;;;6.60;;